sensor_id;sensor_type;location;lat;lon;timestamp;temperature;humidity
6738;DHT22;3406;49.902;8.596;2023-06-05T00:01:17;16.40;42.10
6738;DHT22;3406;49.902;8.596;2023-06-05T00:03:44;16.30;42.20
6738;DHT22;3406;49.902;8.596;2023-06-05T00:06:12;16.30;42.30
6738;DHT22;3406;49.902;8.596;2023-06-05T00:08:38;16.20;42.30
6738;DHT22;3406;49.902;8.596;2023-06-05T00:11:05;16.20;42.50
6738;DHT22;3406;49.902;8.596;2023-06-05T00:13:32;16.10;42.50
6738;DHT22;3406;49.902;8.596;2023-06-05T00:15:59;16.10;42.50
6738;DHT22;3406;49.902;8.596;2023-06-05T00:18:28;16.10;42.60
6738;DHT22;3406;49.902;8.596;2023-06-05T00:20:55;16.10;42.70
6738;DHT22;3406;49.902;8.596;2023-06-05T00:23:23;16.00;42.70
6738;DHT22;3406;49.902;8.596;2023-06-05T00:25:49;16.00;42.70
6738;DHT22;3406;49.902;8.596;2023-06-05T00:28:16;15.90;42.80
6738;DHT22;3406;49.902;8.596;2023-06-05T00:30:43;15.90;42.80
6738;DHT22;3406;49.902;8.596;2023-06-05T00:33:09;15.90;42.90
6738;DHT22;3406;49.902;8.596;2023-06-05T00:35:36;15.90;42.90
6738;DHT22;3406;49.902;8.596;2023-06-05T00:38:03;15.90;43.00
6738;DHT22;3406;49.902;8.596;2023-06-05T00:40:33;15.80;42.90
6738;DHT22;3406;49.902;8.596;2023-06-05T00:43:00;15.80;43.00
6738;DHT22;3406;49.902;8.596;2023-06-05T00:45:27;15.80;43.10
6738;DHT22;3406;49.902;8.596;2023-06-05T00:47:54;15.80;43.20
6738;DHT22;3406;49.902;8.596;2023-06-05T00:50:21;15.70;43.20
6738;DHT22;3406;49.902;8.596;2023-06-05T00:52:49;15.70;43.30
6738;DHT22;3406;49.902;8.596;2023-06-05T00:55:16;15.60;43.40
6738;DHT22;3406;49.902;8.596;2023-06-05T00:57:44;15.60;43.40
6738;DHT22;3406;49.902;8.596;2023-06-05T01:00:11;15.50;43.40
6738;DHT22;3406;49.902;8.596;2023-06-05T01:02:39;15.50;43.60
6738;DHT22;3406;49.902;8.596;2023-06-05T01:05:06;15.50;44.10
6738;DHT22;3406;49.902;8.596;2023-06-05T01:07:34;15.50;43.50
6738;DHT22;3406;49.902;8.596;2023-06-05T01:10:04;15.50;43.60
6738;DHT22;3406;49.902;8.596;2023-06-05T01:12:38;15.50;43.60
6738;DHT22;3406;49.902;8.596;2023-06-05T01:15:09;15.40;43.60
6738;DHT22;3406;49.902;8.596;2023-06-05T01:17:37;15.40;43.60
6738;DHT22;3406;49.902;8.596;2023-06-05T01:20:04;15.40;43.60
6738;DHT22;3406;49.902;8.596;2023-06-05T01:22:34;15.40;43.60
6738;DHT22;3406;49.902;8.596;2023-06-05T01:25:05;15.40;43.50
6738;DHT22;3406;49.902;8.596;2023-06-05T01:27:40;15.40;43.60
6738;DHT22;3406;49.902;8.596;2023-06-05T01:33:31;15.40;43.50
6738;DHT22;3406;49.902;8.596;2023-06-05T01:36:07;15.30;43.40
6738;DHT22;3406;49.902;8.596;2023-06-05T01:38:35;15.30;43.40
6738;DHT22;3406;49.902;8.596;2023-06-05T01:41:04;15.30;43.50
6738;DHT22;3406;49.902;8.596;2023-06-05T01:43:32;15.30;43.40
6738;DHT22;3406;49.902;8.596;2023-06-05T01:45:59;15.30;43.40
6738;DHT22;3406;49.902;8.596;2023-06-05T01:48:26;15.30;43.40
6738;DHT22;3406;49.902;8.596;2023-06-05T01:50:55;15.30;43.40
6738;DHT22;3406;49.902;8.596;2023-06-05T01:53:22;15.30;43.40
6738;DHT22;3406;49.902;8.596;2023-06-05T01:55:49;15.20;43.40
6738;DHT22;3406;49.902;8.596;2023-06-05T01:58:20;15.20;43.40
6738;DHT22;3406;49.902;8.596;2023-06-05T02:00:47;15.20;43.50
6738;DHT22;3406;49.902;8.596;2023-06-05T02:03:14;15.20;43.50
6738;DHT22;3406;49.902;8.596;2023-06-05T02:05:42;15.20;43.50
6738;DHT22;3406;49.902;8.596;2023-06-05T02:08:08;15.20;43.50
6738;DHT22;3406;49.902;8.596;2023-06-05T02:10:35;15.20;43.50
6738;DHT22;3406;49.902;8.596;2023-06-05T02:13:02;15.10;43.50
6738;DHT22;3406;49.902;8.596;2023-06-05T02:15:30;15.10;43.50
6738;DHT22;3406;49.902;8.596;2023-06-05T02:17:59;15.10;43.50
6738;DHT22;3406;49.902;8.596;2023-06-05T02:20:26;15.10;43.50
6738;DHT22;3406;49.902;8.596;2023-06-05T02:22:53;15.10;43.60
6738;DHT22;3406;49.902;8.596;2023-06-05T02:25:20;15.10;43.50
6738;DHT22;3406;49.902;8.596;2023-06-05T02:27:51;15.10;43.60
6738;DHT22;3406;49.902;8.596;2023-06-05T02:30:18;15.10;43.60
6738;DHT22;3406;49.902;8.596;2023-06-05T02:32:46;15.10;43.60
6738;DHT22;3406;49.902;8.596;2023-06-05T02:35:14;15.10;43.70
6738;DHT22;3406;49.902;8.596;2023-06-05T02:37:41;15.10;43.70
6738;DHT22;3406;49.902;8.596;2023-06-05T02:40:09;15.00;43.70
6738;DHT22;3406;49.902;8.596;2023-06-05T02:42:37;15.00;43.70
6738;DHT22;3406;49.902;8.596;2023-06-05T02:45:04;15.00;43.70
6738;DHT22;3406;49.902;8.596;2023-06-05T02:47:31;15.00;43.70
6738;DHT22;3406;49.902;8.596;2023-06-05T02:49:59;15.00;43.70
6738;DHT22;3406;49.902;8.596;2023-06-05T02:52:26;15.00;43.70
6738;DHT22;3406;49.902;8.596;2023-06-05T02:54:53;15.00;43.70
6738;DHT22;3406;49.902;8.596;2023-06-05T02:57:20;15.00;43.80
6738;DHT22;3406;49.902;8.596;2023-06-05T02:59:47;15.00;43.80
6738;DHT22;3406;49.902;8.596;2023-06-05T03:02:13;14.90;43.70
6738;DHT22;3406;49.902;8.596;2023-06-05T03:04:41;14.90;43.80
6738;DHT22;3406;49.902;8.596;2023-06-05T03:07:09;14.90;43.80
6738;DHT22;3406;49.902;8.596;2023-06-05T03:09:38;14.90;43.80
6738;DHT22;3406;49.902;8.596;2023-06-05T03:12:05;14.90;44.00
6738;DHT22;3406;49.902;8.596;2023-06-05T03:14:32;14.80;43.90
6738;DHT22;3406;49.902;8.596;2023-06-05T03:16:58;14.80;44.00
6738;DHT22;3406;49.902;8.596;2023-06-05T03:19:26;14.80;44.00
6738;DHT22;3406;49.902;8.596;2023-06-05T03:21:53;14.70;44.10
6738;DHT22;3406;49.902;8.596;2023-06-05T03:24:21;14.70;44.10
6738;DHT22;3406;49.902;8.596;2023-06-05T03:26:50;14.70;44.20
6738;DHT22;3406;49.902;8.596;2023-06-05T03:29:16;14.70;44.30
6738;DHT22;3406;49.902;8.596;2023-06-05T03:31:43;14.60;44.30
6738;DHT22;3406;49.902;8.596;2023-06-05T03:34:10;14.60;44.50
6738;DHT22;3406;49.902;8.596;2023-06-05T03:36:37;14.60;44.60
6738;DHT22;3406;49.902;8.596;2023-06-05T03:39:04;14.50;44.70
6738;DHT22;3406;49.902;8.596;2023-06-05T03:41:33;14.50;44.80
6738;DHT22;3406;49.902;8.596;2023-06-05T03:43:59;14.40;44.80
6738;DHT22;3406;49.902;8.596;2023-06-05T03:46:26;14.40;44.90
6738;DHT22;3406;49.902;8.596;2023-06-05T03:48:55;14.30;45.00
6738;DHT22;3406;49.902;8.596;2023-06-05T03:51:24;14.30;45.10
6738;DHT22;3406;49.902;8.596;2023-06-05T03:53:55;14.30;45.20
6738;DHT22;3406;49.902;8.596;2023-06-05T03:56:23;14.30;45.40
6738;DHT22;3406;49.902;8.596;2023-06-05T03:58:56;14.20;45.40
6738;DHT22;3406;49.902;8.596;2023-06-05T04:01:23;14.20;45.50
6738;DHT22;3406;49.902;8.596;2023-06-05T04:03:50;14.20;45.60
6738;DHT22;3406;49.902;8.596;2023-06-05T04:06:16;14.20;45.70
6738;DHT22;3406;49.902;8.596;2023-06-05T04:08:43;14.20;45.80
6738;DHT22;3406;49.902;8.596;2023-06-05T04:11:10;14.20;45.80
6738;DHT22;3406;49.902;8.596;2023-06-05T04:13:36;14.20;45.90
6738;DHT22;3406;49.902;8.596;2023-06-05T04:16:05;14.20;46.00
6738;DHT22;3406;49.902;8.596;2023-06-05T04:18:31;14.20;46.10
6738;DHT22;3406;49.902;8.596;2023-06-05T04:20:58;14.30;46.20
6738;DHT22;3406;49.902;8.596;2023-06-05T04:23:25;14.20;46.30
6738;DHT22;3406;49.902;8.596;2023-06-05T04:25:51;14.20;46.30
6738;DHT22;3406;49.902;8.596;2023-06-05T04:28:19;14.30;46.40
6738;DHT22;3406;49.902;8.596;2023-06-05T04:30:47;14.30;46.30
6738;DHT22;3406;49.902;8.596;2023-06-05T04:33:16;14.40;46.40
6738;DHT22;3406;49.902;8.596;2023-06-05T04:35:42;14.40;46.40
6738;DHT22;3406;49.902;8.596;2023-06-05T04:38:09;14.40;46.40
6738;DHT22;3406;49.902;8.596;2023-06-05T04:40:36;14.50;46.50
6738;DHT22;3406;49.902;8.596;2023-06-05T04:43:02;14.50;46.60
6738;DHT22;3406;49.902;8.596;2023-06-05T04:45:29;14.60;46.60
6738;DHT22;3406;49.902;8.596;2023-06-05T04:47:56;14.60;46.60
6738;DHT22;3406;49.902;8.596;2023-06-05T04:50:25;14.70;46.70
6738;DHT22;3406;49.902;8.596;2023-06-05T04:52:53;14.80;46.70
6738;DHT22;3406;49.902;8.596;2023-06-05T04:55:20;14.80;46.60
6738;DHT22;3406;49.902;8.596;2023-06-05T04:57:46;14.90;46.60
6738;DHT22;3406;49.902;8.596;2023-06-05T05:00:14;15.00;46.70
6738;DHT22;3406;49.902;8.596;2023-06-05T05:02:41;15.10;46.70
6738;DHT22;3406;49.902;8.596;2023-06-05T05:05:08;15.10;46.70
6738;DHT22;3406;49.902;8.596;2023-06-05T05:07:40;15.20;46.70
6738;DHT22;3406;49.902;8.596;2023-06-05T05:10:08;15.30;46.70
6738;DHT22;3406;49.902;8.596;2023-06-05T05:12:35;15.40;46.60
6738;DHT22;3406;49.902;8.596;2023-06-05T05:15:02;15.60;46.80
6738;DHT22;3406;49.902;8.596;2023-06-05T05:17:29;15.70;46.80
6738;DHT22;3406;49.902;8.596;2023-06-05T05:19:56;15.80;46.80
6738;DHT22;3406;49.902;8.596;2023-06-05T05:22:23;15.90;46.70
6738;DHT22;3406;49.902;8.596;2023-06-05T05:24:51;16.10;46.80
6738;DHT22;3406;49.902;8.596;2023-06-05T05:27:18;16.20;46.60
6738;DHT22;3406;49.902;8.596;2023-06-05T05:29:44;16.30;46.50
6738;DHT22;3406;49.902;8.596;2023-06-05T05:32:11;16.50;46.50
6738;DHT22;3406;49.902;8.596;2023-06-05T05:34:38;16.70;46.50
6738;DHT22;3406;49.902;8.596;2023-06-05T05:37:04;16.80;46.30
6738;DHT22;3406;49.902;8.596;2023-06-05T05:39:31;17.00;46.20
6738;DHT22;3406;49.902;8.596;2023-06-05T05:41:59;17.10;46.00
6738;DHT22;3406;49.902;8.596;2023-06-05T05:44:28;17.20;45.80
6738;DHT22;3406;49.902;8.596;2023-06-05T05:46:54;17.30;45.60
6738;DHT22;3406;49.902;8.596;2023-06-05T05:49:21;17.40;45.40
6738;DHT22;3406;49.902;8.596;2023-06-05T05:51:48;17.60;45.40
6738;DHT22;3406;49.902;8.596;2023-06-05T05:54:15;17.70;45.10
6738;DHT22;3406;49.902;8.596;2023-06-05T05:56:42;17.80;45.00
6738;DHT22;3406;49.902;8.596;2023-06-05T05:59:10;17.90;44.80
6738;DHT22;3406;49.902;8.596;2023-06-05T06:01:37;18.10;44.80
6738;DHT22;3406;49.902;8.596;2023-06-05T06:04:04;18.30;44.70
6738;DHT22;3406;49.902;8.596;2023-06-05T06:06:31;18.40;44.40
6738;DHT22;3406;49.902;8.596;2023-06-05T06:08:58;18.60;44.10
6738;DHT22;3406;49.902;8.596;2023-06-05T06:11:26;18.80;44.10
6738;DHT22;3406;49.902;8.596;2023-06-05T06:13:53;18.90;43.90
6738;DHT22;3406;49.902;8.596;2023-06-05T06:16:21;19.10;43.80
6738;DHT22;3406;49.902;8.596;2023-06-05T06:18:47;19.20;43.60
6738;DHT22;3406;49.902;8.596;2023-06-05T06:21:14;19.40;43.40
6738;DHT22;3406;49.902;8.596;2023-06-05T06:23:41;19.50;43.10
6738;DHT22;3406;49.902;8.596;2023-06-05T06:26:09;19.60;43.00
6738;DHT22;3406;49.902;8.596;2023-06-05T06:28:37;19.70;42.90
6738;DHT22;3406;49.902;8.596;2023-06-05T06:31:03;19.90;42.80
6738;DHT22;3406;49.902;8.596;2023-06-05T06:33:31;20.00;42.70
6738;DHT22;3406;49.902;8.596;2023-06-05T06:35:58;20.10;42.50
6738;DHT22;3406;49.902;8.596;2023-06-05T06:38:25;20.30;42.40
6738;DHT22;3406;49.902;8.596;2023-06-05T06:40:55;20.40;42.20
6738;DHT22;3406;49.902;8.596;2023-06-05T06:43:22;20.40;42.00
6738;DHT22;3406;49.902;8.596;2023-06-05T06:45:49;20.50;41.90
6738;DHT22;3406;49.902;8.596;2023-06-05T06:48:16;20.70;41.90
6738;DHT22;3406;49.902;8.596;2023-06-05T06:50:45;20.90;41.80
6738;DHT22;3406;49.902;8.596;2023-06-05T06:53:12;21.00;41.60
6738;DHT22;3406;49.902;8.596;2023-06-05T06:55:38;21.20;41.40
6738;DHT22;3406;49.902;8.596;2023-06-05T06:58:05;21.30;41.30
6738;DHT22;3406;49.902;8.596;2023-06-05T07:00:32;21.40;41.10
6738;DHT22;3406;49.902;8.596;2023-06-05T07:02:59;21.50;41.00
6738;DHT22;3406;49.902;8.596;2023-06-05T07:05:25;21.60;40.90
6738;DHT22;3406;49.902;8.596;2023-06-05T07:07:53;21.70;40.80
6738;DHT22;3406;49.902;8.596;2023-06-05T07:10:20;21.90;40.70
6738;DHT22;3406;49.902;8.596;2023-06-05T07:12:47;21.90;40.30
6738;DHT22;3406;49.902;8.596;2023-06-05T07:15:14;22.00;40.30
6738;DHT22;3406;49.902;8.596;2023-06-05T07:17:40;22.10;40.10
6738;DHT22;3406;49.902;8.596;2023-06-05T07:20:08;22.20;39.80
6738;DHT22;3406;49.902;8.596;2023-06-05T07:22:35;22.40;39.80
6738;DHT22;3406;49.902;8.596;2023-06-05T07:25:04;22.50;39.50
6738;DHT22;3406;49.902;8.596;2023-06-05T07:27:31;22.50;39.40
6738;DHT22;3406;49.902;8.596;2023-06-05T07:29:57;22.70;39.00
6738;DHT22;3406;49.902;8.596;2023-06-05T07:32:24;22.70;39.00
6738;DHT22;3406;49.902;8.596;2023-06-05T07:34:51;22.80;38.90
6738;DHT22;3406;49.902;8.596;2023-06-05T07:37:17;22.80;38.30
6738;DHT22;3406;49.902;8.596;2023-06-05T07:39:44;22.80;38.50
6738;DHT22;3406;49.902;8.596;2023-06-05T07:42:13;22.80;38.40
6738;DHT22;3406;49.902;8.596;2023-06-05T07:44:40;23.00;38.40
6738;DHT22;3406;49.902;8.596;2023-06-05T07:47:07;23.10;38.40
6738;DHT22;3406;49.902;8.596;2023-06-05T07:49:33;23.20;38.30
6738;DHT22;3406;49.902;8.596;2023-06-05T07:52:00;23.30;38.10
6738;DHT22;3406;49.902;8.596;2023-06-05T07:54:27;23.30;37.90
6738;DHT22;3406;49.902;8.596;2023-06-05T07:56:53;23.30;37.80
6738;DHT22;3406;49.902;8.596;2023-06-05T07:59:24;23.40;37.60
6738;DHT22;3406;49.902;8.596;2023-06-05T08:01:53;23.40;37.40
6738;DHT22;3406;49.902;8.596;2023-06-05T08:04:21;23.50;37.50
6738;DHT22;3406;49.902;8.596;2023-06-05T08:06:50;23.70;37.50
6738;DHT22;3406;49.902;8.596;2023-06-05T08:09:17;23.70;37.20
6738;DHT22;3406;49.902;8.596;2023-06-05T08:11:44;23.70;36.80
6738;DHT22;3406;49.902;8.596;2023-06-05T08:14:11;23.80;37.00
6738;DHT22;3406;49.902;8.596;2023-06-05T08:16:39;23.90;37.00
6738;DHT22;3406;49.902;8.596;2023-06-05T08:19:05;24.10;36.90
6738;DHT22;3406;49.902;8.596;2023-06-05T08:21:33;24.10;36.80
6738;DHT22;3406;49.902;8.596;2023-06-05T08:24:00;24.10;36.90
6738;DHT22;3406;49.902;8.596;2023-06-05T08:26:27;24.10;36.60
6738;DHT22;3406;49.902;8.596;2023-06-05T08:28:54;24.00;36.80
6738;DHT22;3406;49.902;8.596;2023-06-05T08:31:20;24.10;37.00
6738;DHT22;3406;49.902;8.596;2023-06-05T08:33:48;24.10;36.90
6738;DHT22;3406;49.902;8.596;2023-06-05T08:36:15;24.10;36.90
6738;DHT22;3406;49.902;8.596;2023-06-05T08:38:43;24.10;37.00
6738;DHT22;3406;49.902;8.596;2023-06-05T08:41:11;24.20;37.20
6738;DHT22;3406;49.902;8.596;2023-06-05T08:43:41;24.30;37.20
6738;DHT22;3406;49.902;8.596;2023-06-05T08:46:10;24.40;37.10
6738;DHT22;3406;49.902;8.596;2023-06-05T08:48:41;24.50;37.20
6738;DHT22;3406;49.902;8.596;2023-06-05T08:51:12;24.50;37.10
6738;DHT22;3406;49.902;8.596;2023-06-05T08:53:41;24.60;37.30
6738;DHT22;3406;49.902;8.596;2023-06-05T08:56:08;24.70;37.20
6738;DHT22;3406;49.902;8.596;2023-06-05T08:58:35;24.70;37.30
6738;DHT22;3406;49.902;8.596;2023-06-05T09:01:02;24.70;37.40
6738;DHT22;3406;49.902;8.596;2023-06-05T09:03:29;24.80;37.50
6738;DHT22;3406;49.902;8.596;2023-06-05T09:05:55;24.80;37.40
6738;DHT22;3406;49.902;8.596;2023-06-05T09:08:30;24.80;37.50
6738;DHT22;3406;49.902;8.596;2023-06-05T09:11:18;25.00;37.60
6738;DHT22;3406;49.902;8.596;2023-06-05T09:13:45;25.00;37.50
6738;DHT22;3406;49.902;8.596;2023-06-05T09:16:12;25.10;37.50
6738;DHT22;3406;49.902;8.596;2023-06-05T09:18:51;25.10;37.50
6738;DHT22;3406;49.902;8.596;2023-06-05T09:21:18;25.10;37.70
6738;DHT22;3406;49.902;8.596;2023-06-05T09:23:46;25.10;37.70
6738;DHT22;3406;49.902;8.596;2023-06-05T09:26:13;25.20;37.90
6738;DHT22;3406;49.902;8.596;2023-06-05T09:28:53;25.30;37.80
6738;DHT22;3406;49.902;8.596;2023-06-05T09:31:20;25.30;37.70
6738;DHT22;3406;49.902;8.596;2023-06-05T09:33:55;25.40;37.80
6738;DHT22;3406;49.902;8.596;2023-06-05T09:36:23;25.50;37.80
6738;DHT22;3406;49.902;8.596;2023-06-05T09:38:51;25.50;37.50
6738;DHT22;3406;49.902;8.596;2023-06-05T09:41:18;25.50;37.50
6738;DHT22;3406;49.902;8.596;2023-06-05T09:43:46;25.60;37.30
6738;DHT22;3406;49.902;8.596;2023-06-05T09:46:15;25.70;37.30
6738;DHT22;3406;49.902;8.596;2023-06-05T09:52:04;25.90;36.80
6738;DHT22;3406;49.902;8.596;2023-06-05T09:54:32;26.00;36.90
6738;DHT22;3406;49.902;8.596;2023-06-05T09:57:03;26.00;36.60
6738;DHT22;3406;49.902;8.596;2023-06-05T09:59:31;26.00;36.40
6738;DHT22;3406;49.902;8.596;2023-06-05T10:02:00;26.10;36.30
6738;DHT22;3406;49.902;8.596;2023-06-05T10:04:28;26.10;36.10
6738;DHT22;3406;49.902;8.596;2023-06-05T10:10:18;26.30;36.00
6738;DHT22;3406;49.902;8.596;2023-06-05T10:12:45;26.40;35.40
6738;DHT22;3406;49.902;8.596;2023-06-05T10:15:12;26.40;35.30
6738;DHT22;3406;49.902;8.596;2023-06-05T10:17:39;26.50;35.40
6738;DHT22;3406;49.902;8.596;2023-06-05T10:20:07;26.60;35.10
6738;DHT22;3406;49.902;8.596;2023-06-05T10:22:35;26.60;35.10
6738;DHT22;3406;49.902;8.596;2023-06-05T10:25:06;26.70;35.10
6738;DHT22;3406;49.902;8.596;2023-06-05T10:27:48;26.80;34.90
6738;DHT22;3406;49.902;8.596;2023-06-05T10:30:47;26.80;34.80
6738;DHT22;3406;49.902;8.596;2023-06-05T10:33:29;26.90;34.50
6738;DHT22;3406;49.902;8.596;2023-06-05T10:36:03;27.00;34.40
6738;DHT22;3406;49.902;8.596;2023-06-05T10:38:35;27.00;34.00
6738;DHT22;3406;49.902;8.596;2023-06-05T10:41:04;27.00;33.60
6738;DHT22;3406;49.902;8.596;2023-06-05T10:43:33;26.90;33.70
6738;DHT22;3406;49.902;8.596;2023-06-05T10:46:01;27.00;33.70
6738;DHT22;3406;49.902;8.596;2023-06-05T10:49:10;27.10;33.50
6738;DHT22;3406;49.902;8.596;2023-06-05T10:51:39;27.10;33.30
6738;DHT22;3406;49.902;8.596;2023-06-05T10:54:06;27.20;33.00
6738;DHT22;3406;49.902;8.596;2023-06-05T10:56:56;27.20;32.80
6738;DHT22;3406;49.902;8.596;2023-06-05T10:59:27;27.30;32.80
6738;DHT22;3406;49.902;8.596;2023-06-05T11:02:21;27.30;32.60
6738;DHT22;3406;49.902;8.596;2023-06-05T11:05:04;27.30;32.40
6738;DHT22;3406;49.902;8.596;2023-06-05T11:07:31;27.40;32.40
6738;DHT22;3406;49.902;8.596;2023-06-05T11:10:07;27.40;32.20
6738;DHT22;3406;49.902;8.596;2023-06-05T11:12:58;27.50;31.90
6738;DHT22;3406;49.902;8.596;2023-06-05T11:15:40;27.60;31.50
6738;DHT22;3406;49.902;8.596;2023-06-05T11:18:27;27.70;31.30
6738;DHT22;3406;49.902;8.596;2023-06-05T11:20:55;27.60;30.80
6738;DHT22;3406;49.902;8.596;2023-06-05T11:23:22;27.50;30.60
6738;DHT22;3406;49.902;8.596;2023-06-05T11:25:53;27.30;30.20
6738;DHT22;3406;49.902;8.596;2023-06-05T11:28:40;27.30;30.40
6738;DHT22;3406;49.902;8.596;2023-06-05T11:31:09;27.30;30.50
6738;DHT22;3406;49.902;8.596;2023-06-05T11:33:35;27.30;30.60
6738;DHT22;3406;49.902;8.596;2023-06-05T11:36:04;27.20;30.60
6738;DHT22;3406;49.902;8.596;2023-06-05T11:38:32;27.40;30.40
6738;DHT22;3406;49.902;8.596;2023-06-05T11:40:59;27.40;30.30
6738;DHT22;3406;49.902;8.596;2023-06-05T11:43:26;27.40;30.10
6738;DHT22;3406;49.902;8.596;2023-06-05T11:45:54;27.50;30.20
6738;DHT22;3406;49.902;8.596;2023-06-05T11:48:22;27.50;30.20
6738;DHT22;3406;49.902;8.596;2023-06-05T11:50:55;27.60;30.40
6738;DHT22;3406;49.902;8.596;2023-06-05T11:53:22;27.70;30.50
6738;DHT22;3406;49.902;8.596;2023-06-05T11:55:50;27.90;30.40
6738;DHT22;3406;49.902;8.596;2023-06-05T11:58:34;28.00;30.10
6738;DHT22;3406;49.902;8.596;2023-06-05T12:01:07;28.00;30.00
6738;DHT22;3406;49.902;8.596;2023-06-05T12:03:39;28.00;29.90
6738;DHT22;3406;49.902;8.596;2023-06-05T12:06:06;28.00;29.80
6738;DHT22;3406;49.902;8.596;2023-06-05T12:08:33;28.10;29.60
6738;DHT22;3406;49.902;8.596;2023-06-05T12:11:02;27.90;29.70
6738;DHT22;3406;49.902;8.596;2023-06-05T12:13:48;27.70;29.80
6738;DHT22;3406;49.902;8.596;2023-06-05T12:16:15;27.60;29.90
6738;DHT22;3406;49.902;8.596;2023-06-05T12:18:44;27.70;30.00
6738;DHT22;3406;49.902;8.596;2023-06-05T12:21:21;27.90;29.90
6738;DHT22;3406;49.902;8.596;2023-06-05T12:23:48;28.00;29.90
6738;DHT22;3406;49.902;8.596;2023-06-05T12:26:16;28.10;30.00
6738;DHT22;3406;49.902;8.596;2023-06-05T12:28:43;28.20;29.80
6738;DHT22;3406;49.902;8.596;2023-06-05T12:31:32;28.30;29.80
6738;DHT22;3406;49.902;8.596;2023-06-05T12:34:02;28.30;29.40
6738;DHT22;3406;49.902;8.596;2023-06-05T12:36:29;28.30;29.40
6738;DHT22;3406;49.902;8.596;2023-06-05T12:39:01;28.30;29.30
6738;DHT22;3406;49.902;8.596;2023-06-05T12:41:30;28.40;29.60
6738;DHT22;3406;49.902;8.596;2023-06-05T12:44:00;28.50;29.70
6738;DHT22;3406;49.902;8.596;2023-06-05T12:46:27;28.50;29.80
6738;DHT22;3406;49.902;8.596;2023-06-05T12:48:54;28.60;30.30
6738;DHT22;3406;49.902;8.596;2023-06-05T12:51:24;28.70;29.60
6738;DHT22;3406;49.902;8.596;2023-06-05T12:53:51;28.60;29.60
6738;DHT22;3406;49.902;8.596;2023-06-05T12:56:18;28.60;29.70
6738;DHT22;3406;49.902;8.596;2023-06-05T12:58:48;28.70;29.60
6738;DHT22;3406;49.902;8.596;2023-06-05T13:01:15;28.50;29.40
6738;DHT22;3406;49.902;8.596;2023-06-05T13:03:42;28.20;29.60
6738;DHT22;3406;49.902;8.596;2023-06-05T13:06:10;28.10;29.80
6738;DHT22;3406;49.902;8.596;2023-06-05T13:08:38;28.10;29.90
6738;DHT22;3406;49.902;8.596;2023-06-05T13:11:05;28.20;30.00
6738;DHT22;3406;49.902;8.596;2023-06-05T13:13:31;28.30;29.90
6738;DHT22;3406;49.902;8.596;2023-06-05T13:15:58;28.50;29.70
6738;DHT22;3406;49.902;8.596;2023-06-05T13:18:25;28.60;29.40
6738;DHT22;3406;49.902;8.596;2023-06-05T13:20:52;28.70;29.10
6738;DHT22;3406;49.902;8.596;2023-06-05T13:23:19;28.70;29.10
6738;DHT22;3406;49.902;8.596;2023-06-05T13:25:46;28.70;29.00
6738;DHT22;3406;49.902;8.596;2023-06-05T13:28:13;28.90;29.10
6738;DHT22;3406;49.902;8.596;2023-06-05T13:30:40;29.00;28.80
6738;DHT22;3406;49.902;8.596;2023-06-05T13:33:06;29.00;28.70
6738;DHT22;3406;49.902;8.596;2023-06-05T13:35:33;29.20;28.80
6738;DHT22;3406;49.902;8.596;2023-06-05T13:38:00;29.30;28.50
6738;DHT22;3406;49.902;8.596;2023-06-05T13:40:26;29.30;28.40
6738;DHT22;3406;49.902;8.596;2023-06-05T13:42:54;29.30;28.40
6738;DHT22;3406;49.902;8.596;2023-06-05T13:45:21;29.20;28.30
6738;DHT22;3406;49.902;8.596;2023-06-05T13:47:48;28.90;28.60
6738;DHT22;3406;49.902;8.596;2023-06-05T13:50:15;28.50;29.20
6738;DHT22;3406;49.902;8.596;2023-06-05T13:52:41;28.30;29.00
6738;DHT22;3406;49.902;8.596;2023-06-05T13:55:08;28.20;29.00
6738;DHT22;3406;49.902;8.596;2023-06-05T13:57:35;28.30;28.80
6738;DHT22;3406;49.902;8.596;2023-06-05T14:00:04;28.40;28.80
6738;DHT22;3406;49.902;8.596;2023-06-05T14:02:31;28.40;28.50
6738;DHT22;3406;49.902;8.596;2023-06-05T14:04:57;28.40;28.60
6738;DHT22;3406;49.902;8.596;2023-06-05T14:07:24;28.50;28.70
6738;DHT22;3406;49.902;8.596;2023-06-05T14:09:51;28.70;28.80
6738;DHT22;3406;49.902;8.596;2023-06-05T14:12:18;28.80;28.70
6738;DHT22;3406;49.902;8.596;2023-06-05T14:14:44;28.80;28.80
6738;DHT22;3406;49.902;8.596;2023-06-05T14:17:12;28.90;28.80
6738;DHT22;3406;49.902;8.596;2023-06-05T14:19:39;29.00;28.60
6738;DHT22;3406;49.902;8.596;2023-06-05T14:22:06;29.00;28.20
6738;DHT22;3406;49.902;8.596;2023-06-05T14:24:33;28.90;28.30
6738;DHT22;3406;49.902;8.596;2023-06-05T14:27:00;28.90;28.20
6738;DHT22;3406;49.902;8.596;2023-06-05T14:29:26;28.90;28.30
6738;DHT22;3406;49.902;8.596;2023-06-05T14:31:53;29.00;28.40
6738;DHT22;3406;49.902;8.596;2023-06-05T14:34:21;29.10;28.20
6738;DHT22;3406;49.902;8.596;2023-06-05T14:36:47;29.10;28.30
6738;DHT22;3406;49.902;8.596;2023-06-05T14:39:17;29.20;28.30
6738;DHT22;3406;49.902;8.596;2023-06-05T14:41:44;29.30;28.10
6738;DHT22;3406;49.902;8.596;2023-06-05T14:44:10;29.30;28.10
6738;DHT22;3406;49.902;8.596;2023-06-05T14:46:37;29.40;27.90
6738;DHT22;3406;49.902;8.596;2023-06-05T14:49:04;29.40;27.80
6738;DHT22;3406;49.902;8.596;2023-06-05T14:51:32;29.40;27.80
6738;DHT22;3406;49.902;8.596;2023-06-05T14:53:58;29.50;27.90
6738;DHT22;3406;49.902;8.596;2023-06-05T14:56:25;29.50;27.90
6738;DHT22;3406;49.902;8.596;2023-06-05T14:58:52;29.40;27.80
6738;DHT22;3406;49.902;8.596;2023-06-05T15:01:19;29.30;27.70
6738;DHT22;3406;49.902;8.596;2023-06-05T15:03:45;29.20;27.80
6738;DHT22;3406;49.902;8.596;2023-06-05T15:06:12;29.20;27.90
6738;DHT22;3406;49.902;8.596;2023-06-05T15:08:41;29.30;28.00
6738;DHT22;3406;49.902;8.596;2023-06-05T15:11:07;29.40;28.20
6738;DHT22;3406;49.902;8.596;2023-06-05T15:13:34;29.50;28.10
6738;DHT22;3406;49.902;8.596;2023-06-05T15:16:01;29.50;28.20
6738;DHT22;3406;49.902;8.596;2023-06-05T15:18:28;29.60;28.20
6738;DHT22;3406;49.902;8.596;2023-06-05T15:20:55;29.50;28.00
6738;DHT22;3406;49.902;8.596;2023-06-05T15:23:21;29.40;28.00
6738;DHT22;3406;49.902;8.596;2023-06-05T15:25:49;29.40;28.20
6738;DHT22;3406;49.902;8.596;2023-06-05T15:28:16;29.50;28.30
6738;DHT22;3406;49.902;8.596;2023-06-05T15:30:42;29.60;28.20
6738;DHT22;3406;49.902;8.596;2023-06-05T15:33:09;29.60;28.20
6738;DHT22;3406;49.902;8.596;2023-06-05T15:35:36;29.50;28.30
6738;DHT22;3406;49.902;8.596;2023-06-05T15:38:07;29.30;28.30
6738;DHT22;3406;49.902;8.596;2023-06-05T15:40:34;29.10;28.40
6738;DHT22;3406;49.902;8.596;2023-06-05T15:43:06;29.00;28.50
6738;DHT22;3406;49.902;8.596;2023-06-05T15:45:34;29.00;28.50
6738;DHT22;3406;49.902;8.596;2023-06-05T15:48:01;29.00;28.40
6738;DHT22;3406;49.902;8.596;2023-06-05T15:50:28;29.20;28.40
6738;DHT22;3406;49.902;8.596;2023-06-05T15:52:54;29.20;28.10
6738;DHT22;3406;49.902;8.596;2023-06-05T15:55:21;29.20;28.20
6738;DHT22;3406;49.902;8.596;2023-06-05T15:57:48;29.30;28.20
6738;DHT22;3406;49.902;8.596;2023-06-05T16:00:18;29.40;28.00
6738;DHT22;3406;49.902;8.596;2023-06-05T16:02:46;29.40;28.00
6738;DHT22;3406;49.902;8.596;2023-06-05T16:05:12;29.30;27.90
6738;DHT22;3406;49.902;8.596;2023-06-05T16:07:39;29.30;28.00
6738;DHT22;3406;49.902;8.596;2023-06-05T16:10:06;29.40;28.00
6738;DHT22;3406;49.902;8.596;2023-06-05T16:12:33;29.60;28.10
6738;DHT22;3406;49.902;8.596;2023-06-05T16:15:00;29.70;27.80
6738;DHT22;3406;49.902;8.596;2023-06-05T16:17:28;29.80;27.70
6738;DHT22;3406;49.902;8.596;2023-06-05T16:19:56;29.80;27.70